OIAM 
Mahshahr Airport
Iran 
ICAOIATAStatus
OIAMMRXOperational
LatitudeLongitude
30° 33' 22" N49° 9' 6" E
30.55620049.151901
Local Time (DST+5)UTC (GMT+4)
04-24-2014 07:02 pm04-24-2014 14:32
Sunrise-SunsetLocalUTC
Begin Civil Twilight06:09 am01:39
Sunrise06:34 am02:04
Sunset07:48 pm15:18
End Civil Twilight08:13 pm15:43

Current Weather

METARObservedFlight Conditions

OIAM 241400Z 29019KT CAVOK 34/05 Q1008

Thu, Apr 24, 2014 @ 14:00 UTC(Z)

(32 Minutes ago)

VFR

(Visual Flight Rules)

WindVisibilityCloudsConditions
290° at 19 knots (35 kph)
10 km or more
  • Clear skies
  • No significant weather
TemperaturesReadingsPrecipitation
Current Temp34°C (93°F)
Dewpoint5°C (41°F)
Humidity16%
Altimeter29.76"Hg
Sea Level Pressure1008mb
Field Elevation13.12'
None Recorded

Additional weather within a 92.6km radius of OIAM

Location METAR
OIAG

54.4km E (067°)

32 minutes ago
OIAA

90.7km W (257°)

32 minutes ago
VFR VFR    MVFR MVFR    IFR IFR    LIFR LIFR    Unknown Unknown

Previous 24 hour Weather Graphs

  Loading...

CheckWX.com is intended as a tool to help pilots better visualize weather data.   It is not intended as a substitute for an official weather briefing obtained from a Flight Service Station.
CheckWX.com does not meet the FAA requirements for an official pre-flight weather briefing.   Therefore, it's important that pilots still call and obtain an official FSS pre-flight weather briefing.